createdAt,value
2019-01-14T00:00:35.993Z,923.25
2019-01-14T00:01:36.965Z,923.34
2019-01-14T00:02:37.382Z,923.35
2019-01-14T00:03:37.803Z,923.4
2019-01-14T00:04:38.216Z,923.56
2019-01-14T00:05:39.356Z,923.56
2019-01-14T00:06:39.772Z,923.56
2019-01-14T00:07:40.616Z,923.48
2019-01-14T00:08:41.364Z,923.45
2019-01-14T00:09:42.504Z,923.42
2019-01-14T00:10:42.921Z,923.38
2019-01-14T00:11:43.623Z,923.36
2019-01-14T00:12:44.329Z,923.3
2019-01-14T00:13:44.528Z,923.27
2019-01-14T00:14:45.223Z,923.2
2019-01-14T00:15:46.372Z,923.13
2019-01-14T00:16:46.786Z,923.08
2019-01-14T00:17:47.385Z,923.04
2019-01-14T00:18:48.078Z,923.14
2019-01-14T00:19:48.774Z,922.99
2019-01-14T00:20:49.743Z,923.03
2019-01-14T00:21:50.995Z,923.12
2019-01-14T00:22:51.412Z,923.09
2019-01-14T00:23:51.827Z,923.04
2019-01-14T00:24:52.797Z,923.13
2019-01-14T00:25:53.215Z,923.15
2019-01-14T00:26:53.917Z,923.1
2019-01-14T00:27:55.048Z,923.11
2019-01-14T00:28:55.743Z,923.12
2019-01-14T00:29:56.159Z,922.98
2019-01-14T00:30:56.856Z,922.82
2019-01-14T00:31:57.830Z,922.91
2019-01-14T00:32:59.078Z,922.78
2019-01-14T00:34:00.220Z,922.83
2019-01-14T00:35:00.911Z,922.9
2019-01-14T00:36:01.611Z,922.83
2019-01-14T00:37:02.023Z,922.86
2019-01-14T00:38:02.689Z,922.78
2019-01-14T00:39:03.103Z,922.84
2019-01-14T00:40:04.244Z,922.79
2019-01-14T00:41:04.969Z,922.78
2019-01-14T00:42:06.108Z,922.81
2019-01-14T00:43:07.078Z,922.79
2019-01-14T00:44:07.773Z,922.74
2019-01-14T00:45:08.759Z,922.57
2019-01-14T00:46:09.461Z,922.61
2019-01-14T00:47:09.873Z,922.51
2019-01-14T00:48:10.695Z,922.69
2019-01-14T00:49:11.390Z,922.51
2019-01-14T00:50:11.806Z,922.33
2019-01-14T00:51:12.506Z,922.43
2019-01-14T00:52:13.204Z,922.46
2019-01-14T00:53:14.179Z,922.36
2019-01-14T00:54:14.429Z,922.37
2019-01-14T00:55:14.678Z,922.29
2019-01-14T00:56:15.098Z,922.35
2019-01-14T00:57:15.516Z,922.31
2019-01-14T00:58:16.183Z,922.36
2019-01-14T00:59:16.597Z,922.32
2019-01-14T01:00:18.022Z,922.35
2019-01-14T01:01:18.713Z,922.23
2019-01-14T01:02:19.428Z,922.27
2019-01-14T01:03:20.580Z,922.24
2019-01-14T01:04:21.001Z,922.29
2019-01-14T01:05:21.461Z,922.23
2019-01-14T01:06:25.247Z,922.3
2019-01-14T01:07:26.385Z,922.2
2019-01-14T01:08:26.939Z,922.18
2019-01-14T01:09:27.358Z,922.2
2019-01-14T01:10:28.064Z,922.21
2019-01-14T01:11:28.475Z,922.14
2019-01-14T01:12:28.999Z,922.23
2019-01-14T01:13:29.418Z,922.11
2019-01-14T01:14:30.559Z,922.24
2019-01-14T01:15:30.977Z,922.35
2019-01-14T01:16:31.670Z,922.15
2019-01-14T01:17:32.807Z,922.24
2019-01-14T01:18:33.656Z,922.31
2019-01-14T01:19:34.796Z,922.24
2019-01-14T01:20:35.248Z,922.15
2019-01-14T01:21:35.670Z,922.28
2019-01-14T01:22:36.803Z,922.25
2019-01-14T01:23:37.545Z,922.27
2019-01-14T01:24:37.965Z,922.2
2019-01-14T01:25:38.554Z,922.18
2019-01-14T01:26:39.691Z,922.28
2019-01-14T01:27:40.661Z,922.23
2019-01-14T01:28:41.067Z,922.27
2019-01-14T01:29:41.763Z,922.15
2019-01-14T01:30:42.456Z,922.24
2019-01-14T01:31:43.591Z,922.1
2019-01-14T01:32:44.737Z,922.22
2019-01-14T01:33:45.160Z,922.17
2019-01-14T01:34:45.578Z,922.21
2019-01-14T01:35:46.272Z,922.14
2019-01-14T01:36:46.972Z,922.2
2019-01-14T01:37:47.952Z,922.17
2019-01-14T01:38:48.820Z,922.16
2019-01-14T01:39:49.553Z,922.15
2019-01-14T01:40:49.975Z,922.36
2019-01-14T01:41:50.392Z,922.51
2019-01-14T01:42:51.085Z,922.39
2019-01-14T01:43:52.222Z,922.63
2019-01-14T01:44:53.361Z,922.57
2019-01-14T01:45:53.781Z,922.66
2019-01-14T01:46:54.471Z,922.79
2019-01-14T01:47:55.437Z,922.83
2019-01-14T01:48:56.005Z,922.86
2019-01-14T01:49:57.164Z,922.83
2019-01-14T01:50:58.303Z,922.89
2019-01-14T01:51:58.718Z,923.03
2019-01-14T01:53:00.137Z,923.11
2019-01-14T01:54:01.386Z,922.93
2019-01-14T01:55:02.361Z,923.12
2019-01-14T01:56:03.069Z,923.12
2019-01-14T01:57:03.486Z,923.18
2019-01-14T01:58:03.905Z,923.14
2019-01-14T01:59:04.595Z,923.29
2019-01-14T02:00:05.008Z,923.47
2019-01-14T02:01:05.978Z,923.55
2019-01-14T02:02:06.390Z,923.79
2019-01-14T02:03:07.083Z,923.8
2019-01-14T02:04:07.510Z,923.87
2019-01-14T02:05:07.925Z,923.91
2019-01-14T02:06:09.060Z,923.95
2019-01-14T02:07:10.028Z,924
2019-01-14T02:08:10.721Z,924.02
2019-01-14T02:09:11.855Z,924.11
2019-01-14T02:10:13.268Z,924.11
2019-01-14T02:11:13.514Z,924.26
2019-01-14T02:12:13.932Z,924.33
2019-01-14T02:13:14.343Z,924.37
2019-01-14T02:14:14.761Z,924.37
2019-01-14T02:15:15.457Z,924.43
2019-01-14T02:16:15.893Z,924.41
2019-01-14T02:17:16.313Z,924.39
2019-01-14T02:18:17.008Z,924.32
2019-01-14T02:19:18.165Z,924.36
2019-01-14T02:20:18.863Z,924.28
2019-01-14T02:21:19.277Z,924.24
2019-01-14T02:22:20.415Z,924.37
2019-01-14T02:23:21.107Z,924.43
2019-01-14T02:24:21.522Z,924.52
2019-01-14T02:25:22.213Z,924.45
2019-01-14T02:26:22.631Z,924.55
2019-01-14T02:27:23.325Z,924.56
2019-01-14T02:28:23.736Z,924.67
2019-01-14T02:29:24.287Z,924.67
2019-01-14T02:30:24.862Z,924.73
2019-01-14T02:31:25.399Z,924.75
2019-01-14T02:32:25.664Z,924.81
2019-01-14T02:33:26.798Z,924.74
2019-01-14T02:34:27.934Z,924.78
2019-01-14T02:35:28.354Z,924.77
2019-01-14T02:36:29.608Z,924.78
2019-01-14T02:37:30.580Z,924.74
2019-01-14T02:38:30.828Z,924.77
2019-01-14T02:39:32.265Z,924.77
2019-01-14T02:40:32.956Z,924.85
2019-01-14T02:41:33.932Z,924.84
2019-01-14T02:42:34.899Z,924.81
2019-01-14T02:43:35.669Z,924.85
2019-01-14T02:44:36.372Z,924.87
2019-01-14T02:45:37.413Z,924.9
2019-01-14T02:46:38.121Z,924.9
2019-01-14T02:47:38.828Z,924.98
2019-01-14T02:48:39.367Z,925.01
2019-01-14T02:49:40.056Z,925
2019-01-14T02:50:40.470Z,924.99
2019-01-14T02:51:40.885Z,925.05
2019-01-14T02:52:42.131Z,925.04
2019-01-14T02:53:42.847Z,925.11
2019-01-14T02:54:43.542Z,925.12
2019-01-14T02:55:43.959Z,925.16
2019-01-14T02:56:44.937Z,925.22
2019-01-14T02:57:45.910Z,925.23
2019-01-14T02:58:47.159Z,925.2
2019-01-14T02:59:48.029Z,925.23
2019-01-14T03:00:48.282Z,925.2
2019-01-14T03:01:48.708Z,925.23
2019-01-14T03:02:49.508Z,925.23
2019-01-14T03:03:49.925Z,925.25
2019-01-14T03:04:50.617Z,925.23
2019-01-14T03:05:50.872Z,925.25
2019-01-14T03:06:58.467Z,925.23
2019-01-14T03:07:03.644Z,925.23
2019-01-14T03:08:04.611Z,925.29
2019-01-14T03:09:05.100Z,925.34
2019-01-14T03:10:05.821Z,925.39
2019-01-14T03:11:06.351Z,925.34
2019-01-14T03:12:06.601Z,925.32
2019-01-14T03:13:07.303Z,925.38
2019-01-14T03:14:07.553Z,925.45
2019-01-14T03:15:08.251Z,925.44
2019-01-14T03:16:08.671Z,925.4
2019-01-14T03:17:09.929Z,925.47
2019-01-14T03:18:10.621Z,925.4
2019-01-14T03:19:10.889Z,925.55
2019-01-14T03:20:11.591Z,925.52
2019-01-14T03:21:12.122Z,925.52
2019-01-14T03:22:13.375Z,925.56
2019-01-14T03:23:13.625Z,925.57
2019-01-14T03:24:14.596Z,925.59
2019-01-14T03:25:15.373Z,925.62
2019-01-14T03:26:16.076Z,925.6
2019-01-14T03:27:16.770Z,925.62
2019-01-14T03:28:17.344Z,925.55
2019-01-14T03:29:18.039Z,925.51
2019-01-14T03:30:19.289Z,925.53
2019-01-14T03:31:19.724Z,925.51
2019-01-14T03:32:20.341Z,925.49
2019-01-14T03:33:21.167Z,925.55
2019-01-14T03:34:22.556Z,925.53
2019-01-14T03:35:23.260Z,925.54
2019-01-14T03:36:23.952Z,925.58
2019-01-14T03:37:25.273Z,925.67
2019-01-14T03:38:26.379Z,925.62
2019-01-14T03:39:26.905Z,925.59
2019-01-14T03:40:27.157Z,925.59
2019-01-14T03:41:27.468Z,925.56
2019-01-14T03:42:27.900Z,925.51
2019-01-14T03:43:28.423Z,925.56
2019-01-14T03:44:29.404Z,925.53
2019-01-14T03:45:30.097Z,925.52
2019-01-14T03:46:30.521Z,925.53
2019-01-14T03:47:30.949Z,925.59
2019-01-14T03:48:32.051Z,925.73
2019-01-14T03:49:32.746Z,925.75
2019-01-14T03:50:33.161Z,925.84
2019-01-14T03:51:34.414Z,925.81
2019-01-14T03:52:34.674Z,925.9
2019-01-14T03:53:35.652Z,925.91
2019-01-14T03:54:36.651Z,926
2019-01-14T03:55:37.344Z,926.02
2019-01-14T03:56:38.766Z,926.11
2019-01-14T03:57:39.182Z,926.16
2019-01-14T03:58:40.036Z,926.22
2019-01-14T03:59:40.450Z,926.2
2019-01-14T04:00:41.590Z,926.25
2019-01-14T04:01:42.005Z,926.31
2019-01-14T04:02:42.748Z,926.31
2019-01-14T04:03:43.475Z,926.39
2019-01-14T04:04:44.613Z,926.36
2019-01-14T04:05:46.028Z,926.41
2019-01-14T04:06:46.722Z,926.43
2019-01-14T04:07:47.969Z,926.53
2019-01-14T04:08:48.686Z,926.48
2019-01-14T04:09:49.377Z,926.52
2019-01-14T04:10:50.629Z,926.5
2019-01-14T04:11:51.328Z,926.53
2019-01-14T04:12:51.744Z,926.55
2019-01-14T04:13:52.165Z,926.65
2019-01-14T04:14:52.592Z,926.66
2019-01-14T04:15:53.283Z,926.66
2019-01-14T04:16:54.533Z,926.68
2019-01-14T04:17:55.234Z,926.66
2019-01-14T04:18:56.377Z,926.74
2019-01-14T04:19:56.794Z,926.73
2019-01-14T04:20:57.354Z,926.71
2019-01-14T04:21:57.769Z,926.68
2019-01-14T04:22:58.187Z,926.67
2019-01-14T04:23:59.144Z,926.67
2019-01-14T04:24:59.599Z,926.61
2019-01-14T04:26:00.263Z,926.73
2019-01-14T04:27:00.962Z,926.7
2019-01-14T04:28:02.050Z,926.72
2019-01-14T04:29:02.714Z,926.79
2019-01-14T04:30:03.862Z,926.68
2019-01-14T04:31:04.125Z,926.71
2019-01-14T04:32:05.385Z,926.61
2019-01-14T04:33:06.106Z,926.66
2019-01-14T04:34:07.076Z,926.66
2019-01-14T04:35:07.348Z,926.57
2019-01-14T04:36:08.494Z,926.6
2019-01-14T04:37:09.184Z,926.57
2019-01-14T04:38:09.884Z,926.61
2019-01-14T04:39:10.358Z,926.61
2019-01-14T04:40:10.645Z,926.69
2019-01-14T04:41:11.909Z,926.78
2019-01-14T04:42:12.621Z,926.75
2019-01-14T04:43:13.211Z,926.78
2019-01-14T04:44:13.944Z,926.76
2019-01-14T04:45:14.206Z,926.79
2019-01-14T04:46:14.922Z,926.74
2019-01-14T04:47:15.628Z,926.75
2019-01-14T04:48:16.045Z,926.82
2019-01-14T04:49:17.150Z,926.79
2019-01-14T04:50:17.839Z,926.78
2019-01-14T04:51:18.895Z,926.75
2019-01-14T04:52:19.071Z,926.7
2019-01-14T04:53:19.356Z,926.68
2019-01-14T04:54:19.831Z,926.65
2019-01-14T04:55:20.975Z,926.64
2019-01-14T04:56:22.000Z,926.64
2019-01-14T04:57:23.141Z,926.61
2019-01-14T04:58:23.566Z,926.68
2019-01-14T04:59:24.705Z,926.63
2019-01-14T05:00:25.736Z,926.65
2019-01-14T05:01:26.153Z,926.67
2019-01-14T05:02:26.848Z,926.71
2019-01-14T05:03:27.823Z,926.7
2019-01-14T05:04:28.518Z,926.73
2019-01-14T05:05:29.488Z,926.65
2019-01-14T05:06:29.911Z,926.65
2019-01-14T05:07:30.600Z,926.57
2019-01-14T05:08:31.739Z,926.56
2019-01-14T05:09:32.352Z,926.54
2019-01-14T05:10:33.059Z,926.59
2019-01-14T05:11:34.066Z,926.61
2019-01-14T05:12:35.043Z,926.63
2019-01-14T05:13:36.044Z,926.6
2019-01-14T05:14:36.741Z,926.64
2019-01-14T05:15:37.768Z,926.59
2019-01-14T05:16:38.194Z,926.62
2019-01-14T05:17:38.897Z,926.62
2019-01-14T05:18:39.590Z,926.63
2019-01-14T05:19:40.181Z,926.59
2019-01-14T05:20:41.451Z,926.6
2019-01-14T05:21:41.989Z,926.6
2019-01-14T05:22:42.406Z,926.64
2019-01-14T05:23:43.379Z,926.64
2019-01-14T05:24:43.799Z,926.66
2019-01-14T05:25:44.946Z,926.72
2019-01-14T05:26:46.196Z,926.71
2019-01-14T05:27:47.384Z,926.67
2019-01-14T05:28:47.641Z,926.64
2019-01-14T05:29:48.335Z,926.63
2019-01-14T05:30:49.051Z,926.64
2019-01-14T05:31:50.189Z,926.71
2019-01-14T05:32:51.164Z,926.73
2019-01-14T05:33:52.163Z,926.72
2019-01-14T05:34:53.587Z,926.7
2019-01-14T05:35:54.013Z,926.73
2019-01-14T05:36:54.424Z,926.74
2019-01-14T05:37:55.420Z,926.74
2019-01-14T05:38:55.835Z,926.77
2019-01-14T05:39:57.263Z,926.8
2019-01-14T05:40:57.683Z,926.84
2019-01-14T05:41:58.096Z,926.82
2019-01-14T05:42:58.510Z,926.78
2019-01-14T05:43:59.207Z,926.81
2019-01-14T05:44:59.906Z,926.81
2019-01-14T05:46:00.484Z,926.86
2019-01-14T05:47:00.908Z,926.89
2019-01-14T05:48:01.878Z,926.88
2019-01-14T05:49:02.316Z,926.9
2019-01-14T05:50:03.167Z,926.94
2019-01-14T05:51:03.584Z,926.96
2019-01-14T05:52:04.560Z,926.95
2019-01-14T05:53:04.985Z,926.94
2019-01-14T05:54:05.970Z,926.94
2019-01-14T05:55:06.668Z,926.99
2019-01-14T05:56:06.917Z,926.97
2019-01-14T05:57:07.611Z,926.98
2019-01-14T05:58:08.601Z,927.02
2019-01-14T05:59:10.019Z,926.99
2019-01-14T06:00:10.222Z,927.03
2019-01-14T06:01:11.251Z,927.11
2019-01-14T06:02:11.789Z,927.05
2019-01-14T06:03:13.041Z,927.12
2019-01-14T06:04:13.734Z,927.14
2019-01-14T06:05:14.431Z,927.15
2019-01-14T06:06:15.567Z,927.17
2019-01-14T06:07:16.539Z,927.17
2019-01-14T06:08:17.960Z,927.18
2019-01-14T06:09:18.740Z,927.18
2019-01-14T06:10:19.849Z,927.17
2019-01-14T06:11:20.282Z,927.2
2019-01-14T06:12:20.975Z,927.19
2019-01-14T06:13:21.224Z,927.19
2019-01-14T06:14:22.519Z,927.23
2019-01-14T06:15:23.495Z,927.27
2019-01-14T06:16:24.478Z,927.26
2019-01-14T06:17:24.769Z,927.24
2019-01-14T06:18:25.196Z,927.27
2019-01-14T06:19:25.895Z,927.26
2019-01-14T06:20:26.591Z,927.29
2019-01-14T06:21:27.007Z,927.27
2019-01-14T06:22:27.469Z,927.34
2019-01-14T06:23:27.645Z,927.32
2019-01-14T06:24:28.618Z,927.17
2019-01-14T06:25:29.587Z,927.2
2019-01-14T06:26:29.893Z,927.29
2019-01-14T06:27:30.138Z,927.26
2019-01-14T06:28:31.275Z,927.28
2019-01-14T06:29:31.693Z,927.22
2019-01-14T06:30:31.974Z,927.31
2019-01-14T06:31:33.107Z,927.34
2019-01-14T06:32:34.360Z,927.24
2019-01-14T06:33:35.498Z,927.31
2019-01-14T06:34:35.916Z,927.35
2019-01-14T06:35:36.606Z,927.34
2019-01-14T06:36:37.038Z,927.26
2019-01-14T06:37:38.290Z,927.23
2019-01-14T06:38:38.707Z,927.32
2019-01-14T06:39:40.122Z,927.29
2019-01-14T06:40:40.946Z,927.32
2019-01-14T06:41:41.642Z,927.36
2019-01-14T06:42:42.054Z,927.41
2019-01-14T06:43:42.751Z,927.39
2019-01-14T06:44:43.445Z,927.37
2019-01-14T06:45:44.252Z,927.36
2019-01-14T06:46:44.663Z,927.34
2019-01-14T06:47:45.358Z,927.39
2019-01-14T06:48:46.788Z,927.4
2019-01-14T06:49:47.204Z,927.4
2019-01-14T06:50:47.510Z,927.42
2019-01-14T06:51:47.974Z,927.43
2019-01-14T06:52:48.670Z,927.5
2019-01-14T06:53:49.390Z,927.47
2019-01-14T06:54:50.007Z,927.45
2019-01-14T06:55:50.700Z,927.52
2019-01-14T06:56:51.842Z,927.5
2019-01-14T06:57:52.720Z,927.51
2019-01-14T06:58:53.909Z,927.53
2019-01-14T06:59:54.345Z,927.59
2019-01-14T07:00:55.144Z,927.55
2019-01-14T07:01:55.957Z,927.66
2019-01-14T07:02:57.625Z,927.68
2019-01-14T07:03:58.825Z,927.67
2019-01-14T07:05:00.515Z,927.65
2019-01-14T07:06:01.481Z,927.69
2019-01-14T07:07:01.934Z,927.68
2019-01-14T07:08:02.394Z,927.83
2019-01-14T07:09:03.725Z,927.75
2019-01-14T07:10:04.055Z,927.72
2019-01-14T07:11:04.851Z,927.69
2019-01-14T07:12:05.783Z,927.79
2019-01-14T07:13:06.347Z,927.81
2019-01-14T07:14:07.244Z,927.81
2019-01-14T07:15:07.606Z,927.79
2019-01-14T07:16:07.868Z,927.91
2019-01-14T07:17:08.094Z,927.96
2019-01-14T07:18:09.030Z,927.9
2019-01-14T07:19:09.769Z,927.94
2019-01-14T07:20:11.189Z,927.98
2019-01-14T07:21:11.539Z,928.02
2019-01-14T07:22:12.237Z,928.01
2019-01-14T07:23:12.660Z,928
2019-01-14T07:24:13.071Z,928.03
2019-01-14T07:25:14.049Z,928.04
2019-01-14T07:26:14.317Z,928.12
2019-01-14T07:27:15.288Z,928.06
2019-01-14T07:28:17.782Z,928.07
2019-01-14T07:28:28.667Z,928.12
2019-01-14T07:29:28.677Z,928.08
2019-01-14T07:30:29.104Z,928.08
2019-01-14T07:31:30.251Z,928.12
2019-01-14T07:32:30.680Z,928.09
2019-01-14T07:33:31.650Z,928.15
2019-01-14T07:34:32.787Z,928.12
2019-01-14T07:35:33.212Z,928.18
2019-01-14T07:36:34.184Z,928.16
2019-01-14T07:37:34.880Z,928.18
2019-01-14T07:38:37.228Z,928.23
2019-01-14T07:38:48.207Z,928.22
2019-01-14T07:39:48.610Z,928.19
2019-01-14T07:40:50.983Z,928.23
2019-01-14T07:41:52.127Z,928.23
2019-01-14T07:42:52.709Z,928.24
2019-01-14T07:43:53.127Z,928.24
2019-01-14T07:44:53.545Z,928.21
2019-01-14T07:45:54.008Z,928.3
2019-01-14T07:46:55.153Z,928.25
2019-01-14T07:47:55.577Z,928.26
2019-01-14T07:48:56.000Z,928.33
2019-01-14T07:49:56.849Z,928.33
2019-01-14T07:50:57.266Z,928.4
2019-01-14T07:51:57.688Z,928.39
2019-01-14T07:52:58.424Z,928.44
2019-01-14T07:53:59.415Z,928.42
2019-01-14T07:55:00.835Z,928.42
2019-01-14T07:56:01.538Z,928.46
2019-01-14T07:57:02.516Z,928.51
2019-01-14T07:58:04.886Z,928.43
2019-01-14T07:58:16.808Z,928.48
2019-01-14T07:58:28.839Z,928.54
2019-01-14T07:59:28.822Z,928.49
2019-01-14T08:00:29.238Z,928.57
2019-01-14T08:01:29.981Z,928.59
2019-01-14T08:02:30.674Z,928.6
2019-01-14T08:03:31.092Z,928.61
2019-01-14T08:04:31.510Z,928.59
2019-01-14T08:05:31.928Z,928.57
2019-01-14T08:06:32.347Z,928.6
2019-01-14T08:07:33.043Z,928.59
2019-01-14T08:08:34.183Z,928.63
2019-01-14T08:09:34.355Z,928.65
2019-01-14T08:10:35.055Z,928.6
2019-01-14T08:11:37.092Z,928.7
2019-01-14T08:12:38.081Z,928.71
2019-01-14T08:13:38.653Z,928.7
2019-01-14T08:14:42.714Z,928.67
2019-01-14T08:15:40.475Z,928.69
2019-01-14T08:16:40.906Z,928.69
2019-01-14T08:17:43.441Z,928.76
2019-01-14T08:18:43.117Z,928.64
2019-01-14T08:19:43.398Z,928.67
2019-01-14T08:20:45.216Z,928.7
2019-01-14T08:21:46.892Z,928.65
2019-01-14T08:22:48.059Z,928.66
2019-01-14T08:23:49.030Z,928.65
2019-01-14T08:24:50.196Z,928.66
2019-01-14T08:25:49.979Z,928.66
2019-01-14T08:26:50.397Z,928.65
2019-01-14T08:27:51.864Z,928.62
2019-01-14T08:28:52.397Z,928.66
2019-01-14T08:29:53.049Z,928.66
2019-01-14T08:30:56.399Z,928.66
2019-01-14T08:31:05.610Z,928.61
2019-01-14T08:31:18.441Z,928.61
2019-01-14T08:32:18.556Z,928.59
2019-01-14T08:33:21.629Z,928.67
2019-01-14T08:33:31.299Z,928.66
2019-01-14T08:34:32.131Z,928.64
2019-01-14T08:35:32.331Z,928.65
2019-01-14T08:36:32.745Z,928.69
2019-01-14T08:37:33.717Z,928.63
2019-01-14T08:38:34.412Z,928.68
2019-01-14T08:39:35.714Z,928.71
2019-01-14T08:40:36.853Z,928.7
2019-01-14T08:41:39.281Z,928.68
2019-01-14T08:42:39.518Z,928.75
2019-01-14T08:43:39.938Z,928.76
2019-01-14T08:44:41.092Z,928.76
2019-01-14T08:45:42.109Z,928.82
2019-01-14T08:46:42.527Z,928.8
2019-01-14T08:47:43.503Z,928.81
2019-01-14T08:48:49.125Z,928.75
2019-01-14T08:49:50.151Z,928.73
2019-01-14T08:50:50.575Z,928.82
2019-01-14T08:51:51.274Z,928.85
2019-01-14T08:52:53.282Z,928.87
2019-01-14T08:53:53.828Z,928.83
2019-01-14T08:54:55.583Z,928.85
2019-01-14T08:55:55.855Z,928.94
2019-01-14T08:56:56.398Z,928.91
2019-01-14T08:57:57.102Z,928.88
2019-01-14T08:58:58.556Z,928.93
2019-01-14T08:59:58.986Z,928.94
2019-01-14T09:00:59.335Z,929.01
2019-01-14T09:01:59.767Z,928.96
2019-01-14T09:03:00.022Z,929.01
2019-01-14T09:04:01.165Z,928.97
2019-01-14T09:05:01.569Z,928.99
2019-01-14T09:06:01.999Z,928.92
2019-01-14T09:07:03.302Z,929.01
2019-01-14T09:08:05.706Z,929.09
2019-01-14T09:09:06.037Z,928.98
2019-01-14T09:10:08.351Z,929.05
2019-01-14T09:10:19.248Z,929.08
2019-01-14T09:10:31.421Z,929.06
2019-01-14T09:10:44.495Z,929.07
2019-01-14T09:11:44.029Z,929.1
2019-01-14T09:12:44.452Z,929.18
2019-01-14T09:13:46.854Z,929.16
2019-01-14T09:13:58.182Z,929.17
2019-01-14T09:14:10.076Z,929.11
2019-01-14T09:14:22.573Z,929.16
2019-01-14T09:14:34.762Z,929.15
2019-01-14T09:14:46.715Z,929.19
2019-01-14T09:14:58.929Z,929.17
2019-01-14T09:15:11.105Z,929.13
2019-01-14T09:16:11.131Z,929.15
2019-01-14T09:17:12.274Z,929.19
2019-01-14T09:18:12.701Z,929.18
2019-01-14T09:19:15.452Z,929.24
2019-01-14T09:20:17.712Z,929.18
2019-01-14T09:20:28.625Z,929.25
2019-01-14T09:21:29.451Z,929.17
2019-01-14T09:22:30.150Z,929.15
2019-01-14T09:23:31.132Z,929.13
2019-01-14T09:24:31.551Z,929.14
2019-01-14T09:25:32.884Z,929.15
2019-01-14T09:26:33.856Z,929.15
2019-01-14T09:27:34.275Z,929.09
2019-01-14T09:28:35.010Z,929.12
2019-01-14T09:29:35.378Z,929.05
2019-01-14T09:30:36.645Z,929.14
2019-01-14T09:31:37.512Z,929.11
2019-01-14T09:32:38.655Z,929.09
2019-01-14T09:33:39.799Z,929.09
2019-01-14T09:34:40.064Z,929.15
2019-01-14T09:35:41.356Z,929.13
2019-01-14T09:36:41.776Z,929.22
2019-01-14T09:37:42.202Z,929.2
2019-01-14T09:38:43.359Z,929.21
2019-01-14T09:39:44.065Z,929.17
2019-01-14T09:40:44.764Z,929.23
2019-01-14T09:41:45.892Z,929.2
2019-01-14T09:42:46.875Z,929.26
2019-01-14T09:43:47.311Z,929.32
2019-01-14T09:44:48.456Z,929.22
2019-01-14T09:45:48.873Z,929.28
2019-01-14T09:46:49.853Z,929.22
2019-01-14T09:47:51.756Z,929.23
2019-01-14T09:48:52.237Z,929.26
2019-01-14T09:49:52.718Z,929.36
2019-01-14T09:50:04.692Z,929.33
2019-01-14T09:51:05.084Z,929.32
2019-01-14T09:52:05.786Z,929.28
2019-01-14T09:53:06.764Z,929.33
2019-01-14T09:54:07.735Z,929.29
2019-01-14T09:55:08.990Z,929.34
2019-01-14T09:56:10.138Z,929.46
2019-01-14T09:57:10.894Z,929.59
2019-01-14T09:58:11.790Z,929.47
2019-01-14T09:59:12.577Z,929.4
2019-01-14T10:00:13.540Z,929.49
2019-01-14T10:01:14.263Z,929.53
2019-01-14T10:02:15.115Z,929.5
2019-01-14T10:03:16.272Z,929.57
2019-01-14T10:04:16.807Z,929.58
2019-01-14T10:05:17.196Z,929.56
2019-01-14T10:06:19.123Z,929.67
2019-01-14T10:06:32.241Z,929.63
2019-01-14T10:07:33.128Z,929.64
2019-01-14T10:08:34.122Z,929.68
2019-01-14T10:08:46.044Z,929.66
2019-01-14T10:09:46.594Z,929.61
2019-01-14T10:10:47.737Z,929.55
2019-01-14T10:11:49.809Z,929.6
2019-01-14T10:12:01.469Z,929.49
2019-01-14T10:13:01.906Z,929.58
2019-01-14T10:14:02.346Z,929.57
2019-01-14T10:15:04.270Z,929.52
2019-01-14T10:16:04.077Z,929.49
2019-01-14T10:17:04.780Z,929.51
2019-01-14T10:18:05.522Z,929.48
2019-01-14T10:19:05.985Z,929.49
2019-01-14T10:20:06.688Z,929.39
2019-01-14T10:21:07.393Z,929.45
2019-01-14T10:22:08.675Z,929.5
2019-01-14T10:23:09.509Z,929.34
2019-01-14T10:24:11.530Z,929.38
2019-01-14T10:25:12.203Z,929.42
2019-01-14T10:26:12.961Z,929.42
2019-01-14T10:27:15.296Z,929.44
2019-01-14T10:28:17.573Z,929.47
2019-01-14T10:29:18.055Z,929.49
2019-01-14T10:30:19.936Z,929.45
2019-01-14T10:30:32.016Z,929.46
2019-01-14T10:30:44.785Z,929.46
2019-01-14T10:30:57.089Z,929.46
2019-01-14T10:31:08.531Z,929.47
2019-01-14T10:32:08.596Z,929.46
2019-01-14T10:33:09.022Z,929.5
2019-01-14T10:34:09.728Z,929.47
2019-01-14T10:35:10.424Z,929.48
2019-01-14T10:36:11.401Z,929.47
2019-01-14T10:37:11.821Z,929.5
2019-01-14T10:38:12.524Z,929.54
2019-01-14T10:39:13.229Z,929.53
2019-01-14T10:40:13.926Z,929.46
2019-01-14T10:41:14.922Z,929.53
2019-01-14T10:42:15.543Z,929.47
2019-01-14T10:43:16.443Z,929.48
2019-01-14T10:44:19.234Z,929.44
2019-01-14T10:44:29.947Z,929.37
2019-01-14T10:44:41.941Z,929.43
2019-01-14T10:44:54.170Z,929.42
2019-01-14T10:45:54.348Z,929.46
2019-01-14T10:46:54.540Z,929.51
2019-01-14T10:47:54.969Z,929.52
2019-01-14T10:48:56.853Z,929.45
2019-01-14T10:49:58.136Z,929.44
2019-01-14T10:50:08.806Z,929.41
2019-01-14T10:51:09.808Z,929.43
2019-01-14T10:52:10.935Z,929.4
2019-01-14T10:53:11.653Z,929.34
2019-01-14T10:54:12.628Z,929.37
2019-01-14T10:55:13.322Z,929.34
2019-01-14T10:56:14.026Z,929.25
2019-01-14T10:57:14.445Z,929.29
2019-01-14T10:58:15.160Z,929.31
2019-01-14T10:59:16.306Z,929.36
2019-01-14T11:00:18.546Z,929.38
2019-01-14T11:01:18.474Z,929.32
2019-01-14T11:02:20.328Z,929.36
2019-01-14T11:03:21.492Z,929.35
2019-01-14T11:04:21.950Z,929.36
2019-01-14T11:05:22.655Z,929.26
2019-01-14T11:06:23.965Z,929.31
2019-01-14T11:07:26.143Z,929.34
2019-01-14T11:07:37.705Z,929.33
2019-01-14T11:08:38.502Z,929.29
2019-01-14T11:09:39.324Z,929.3
2019-01-14T11:10:39.896Z,929.21
2019-01-14T11:11:40.242Z,929.22
2019-01-14T11:12:40.482Z,929.23
2019-01-14T11:13:41.174Z,929.22
2019-01-14T11:14:42.834Z,929.18
2019-01-14T11:15:42.656Z,929.26
2019-01-14T11:16:43.490Z,929.21
2019-01-14T11:17:43.908Z,929.15
2019-01-14T11:18:44.192Z,929.32
2019-01-14T11:19:45.619Z,929.16
2019-01-14T11:20:46.580Z,929.19
2019-01-14T11:21:48.661Z,929.15
2019-01-14T11:22:00.431Z,929.12
2019-01-14T11:23:00.739Z,929.16
2019-01-14T11:24:03.044Z,929.16
2019-01-14T11:25:03.338Z,929.23
2019-01-14T11:26:03.855Z,929.24
2019-01-14T11:27:05.001Z,929.09
2019-01-14T11:28:06.144Z,929.15
2019-01-14T11:29:07.117Z,929.14
2019-01-14T11:30:07.540Z,929.18
2019-01-14T11:31:07.965Z,929.14
2019-01-14T11:32:09.106Z,929.15
2019-01-14T11:33:09.653Z,929.14
2019-01-14T11:34:10.352Z,929.15
2019-01-14T11:35:10.773Z,929.16
2019-01-14T11:36:12.030Z,929.12
2019-01-14T11:37:12.727Z,929.12
2019-01-14T11:38:13.744Z,929.09
2019-01-14T11:39:14.171Z,929.1
2019-01-14T11:40:14.603Z,929.12
2019-01-14T11:41:15.578Z,929.12
2019-01-14T11:42:17.489Z,929.12
2019-01-14T11:43:17.378Z,929.11
2019-01-14T11:44:18.521Z,929.03
2019-01-14T11:45:18.948Z,929.05
2019-01-14T11:46:19.649Z,929.15
2019-01-14T11:47:20.067Z,929.11
2019-01-14T11:48:21.221Z,929.14
2019-01-14T11:49:22.638Z,929.19
2019-01-14T11:50:23.785Z,929.14
2019-01-14T11:51:24.214Z,929.02
2019-01-14T11:52:24.912Z,929.09
2019-01-14T11:53:25.548Z,929.14
2019-01-14T11:54:27.008Z,929.06
2019-01-14T11:55:29.028Z,929.03
2019-01-14T11:56:29.475Z,929.01
2019-01-14T11:57:29.903Z,929.04
2019-01-14T11:58:30.650Z,929.02
2019-01-14T11:59:31.624Z,929.1
2019-01-14T12:00:37.342Z,929.12
2019-01-14T12:01:37.762Z,929.08
2019-01-14T12:02:40.346Z,929.12
2019-01-14T12:03:42.544Z,929.12
2019-01-14T12:04:42.537Z,929.1
2019-01-14T12:05:42.953Z,929.12
2019-01-14T12:06:43.648Z,929.16
2019-01-14T12:07:44.789Z,929.13
2019-01-14T12:08:45.214Z,929.16
2019-01-14T12:09:46.359Z,929.16
2019-01-14T12:10:47.505Z,929.15
2019-01-14T12:11:49.447Z,929.07
2019-01-14T12:12:00.629Z,929.11
2019-01-14T12:13:02.252Z,929.16